Time;durP1;ratioP1;P1;durP2;ratioP2;P2;SDS_P1;SDS_P2;PMS_P1;PMS_P2;Temp;Humidity;BMP_temperature;BMP_pressure;BME280_temperature;BME280_humidity;BME280_pressure;Samples;Min_cycle;Max_cycle;Signal;HPM_P1;HPM_P2
2023/03/23 00:01:01;;;;;;;0.50;0.40;;;11.00;99.90;;;;;;5054525;28;20991;-79
2023/03/23 00:03:31;;;;;;;0.87;0.87;;;11.10;99.90;;;;;;5054502;28;20289;-80
2023/03/23 00:06:04;;;;;;;0.63;0.63;;;11.10;99.90;;;;;;5054706;28;20484;-79
2023/03/23 00:08:31;;;;;;;1.57;1.27;;;11.20;99.90;;;;;;5054453;28;20437;-80
2023/03/23 00:11:00;;;;;;;2.70;2.50;;;11.20;99.90;;;;;;5055548;28;20433;-80
2023/03/23 00:13:29;;;;;;;2.70;2.38;;;11.30;99.90;;;;;;5050005;28;20511;-80
2023/03/23 00:15:56;;;;;;;1.80;1.33;;;11.30;99.90;;;;;;5059855;28;20633;-79
2023/03/23 00:18:25;;;;;;;1.30;0.77;;;11.30;99.90;;;;;;5058332;28;20191;-80
2023/03/23 00:20:54;;;;;;;0.67;0.67;;;11.40;99.90;;;;;;5059548;28;20626;-81
2023/03/23 00:23:23;;;;;;;6.25;1.55;;;11.40;99.90;;;;;;5064562;28;20520;-79
2023/03/23 00:25:56;;;;;;;1.20;0.80;;;11.40;99.90;;;;;;5059424;28;20194;-80
2023/03/23 00:28:26;;;;;;;1.00;1.00;;;11.40;99.90;;;;;;5064394;28;20800;-79
2023/03/23 00:30:57;;;;;;;0.57;0.50;;;11.50;99.90;;;;;;5063546;28;20496;-81
2023/03/23 00:33:29;;;;;;;1.20;0.80;;;11.50;99.90;;;;;;5060806;28;20484;-81
2023/03/23 00:35:56;;;;;;;0.70;0.60;;;11.60;99.90;;;;;;5062884;28;20520;-82
2023/03/23 00:38:24;;;;;;;0.70;0.50;;;11.70;99.90;;;;;;5059538;28;20729;-80
2023/03/23 00:40:51;;;;;;;1.20;1.10;;;11.60;99.90;;;;;;5063225;28;20441;-81
2023/03/23 00:43:20;;;;;;;0.80;0.80;;;11.70;99.90;;;;;;5063970;28;20437;-82
2023/03/23 00:45:52;;;;;;;2.30;1.07;;;11.80;99.90;;;;;;5065553;28;20801;-80
2023/03/23 00:48:19;;;;;;;1.83;0.70;;;11.80;99.90;;;;;;5065746;28;20440;-80
2023/03/23 00:50:47;;;;;;;2.10;0.90;;;11.80;99.90;;;;;;5066432;28;20441;-82
2023/03/23 00:53:15;;;;;;;0.73;0.70;;;11.80;99.90;;;;;;5068420;28;20571;-81
2023/03/23 00:55:42;;;;;;;1.10;1.00;;;11.80;99.90;;;;;;5065640;28;20468;-80
2023/03/23 00:58:09;;;;;;;1.13;0.90;;;11.80;99.90;;;;;;5065990;28;20445;-81
2023/03/23 01:00:36;;;;;;;1.13;1.00;;;11.90;99.90;;;;;;5066936;28;20445;-81
2023/03/23 01:03:03;;;;;;;2.23;2.13;;;11.90;99.90;;;;;;5065760;28;20437;-81
2023/03/23 01:05:31;;;;;;;0.70;0.70;;;11.90;99.90;;;;;;5063720;28;20441;-81
2023/03/23 01:08:00;;;;;;;1.23;1.13;;;11.90;99.90;;;;;;5065595;28;20775;-80
2023/03/23 01:10:27;;;;;;;0.70;0.70;;;12.00;99.90;;;;;;5068738;28;20444;-81
2023/03/23 01:12:55;;;;;;;1.25;1.08;;;12.00;99.90;;;;;;5065860;28;20533;-81
2023/03/23 01:15:22;;;;;;;0.93;0.80;;;12.00;99.90;;;;;;5063754;28;20218;-80
2023/03/23 01:17:49;;;;;;;2.17;1.37;;;12.00;99.90;;;;;;5064993;28;20443;-80
2023/03/23 01:20:16;;;;;;;0.60;0.60;;;12.10;99.90;;;;;;5066591;28;20865;-77
2023/03/23 01:22:44;;;;;;;0.70;0.60;;;12.10;99.90;;;;;;5064796;28;20433;-78
2023/03/23 01:25:13;;;;;;;0.83;0.77;;;12.10;99.90;;;;;;5064391;28;20461;-80
2023/03/23 01:27:41;;;;;;;1.07;1.07;;;12.20;99.90;;;;;;5063657;28;20540;-81
2023/03/23 01:30:10;;;;;;;1.00;0.97;;;12.10;99.90;;;;;;5064623;28;20444;-79
2023/03/23 01:32:36;;;;;;;0.77;0.60;;;12.10;99.90;;;;;;5068109;28;20520;-79
2023/03/23 01:35:03;;;;;;;0.60;0.60;;;12.10;99.90;;;;;;5068632;28;20877;-79
2023/03/23 01:37:32;;;;;;;2.10;2.00;;;12.10;99.90;;;;;;5064867;28;20440;-79
2023/03/23 01:39:59;;;;;;;0.60;0.50;;;12.10;99.90;;;;;;5064859;28;20839;-82
2023/03/23 01:42:33;;;;;;;1.13;0.70;;;12.10;99.90;;;;;;5066276;28;20436;-79
2023/03/23 01:45:32;;;;;;;0.63;0.60;;;12.10;99.90;;;;;;5070576;28;20452;-80
2023/03/23 01:48:16;;;;;;;0.50;0.40;;;12.10;99.90;;;;;;5064975;28;20218;-80
2023/03/23 01:50:51;;;;;;;0.60;0.50;;;12.00;99.90;;;;;;5063247;28;20524;-81
2023/03/23 01:53:20;;;;;;;2.00;0.80;;;12.10;99.90;;;;;;5066539;28;20547;-80
2023/03/23 01:55:50;;;;;;;0.70;0.70;;;12.10;99.90;;;;;;5065945;28;20444;-79
2023/03/23 01:58:25;;;;;;;1.77;0.90;;;12.10;99.90;;;;;;5063789;28;20453;-80
2023/03/23 02:00:53;;;;;;;0.63;0.63;;;12.10;99.90;;;;;;5062980;28;20437;-80
2023/03/23 02:03:23;;;;;;;1.37;0.80;;;12.10;99.90;;;;;;5065934;28;20442;-80
2023/03/23 02:05:51;;;;;;;0.77;0.60;;;12.10;99.90;;;;;;5062618;28;20483;-81
2023/03/23 02:08:19;;;;;;;0.80;0.80;;;12.10;99.90;;;;;;5061464;28;20436;-79
2023/03/23 02:10:45;;;;;;;1.07;1.00;;;12.10;99.90;;;;;;5061536;28;20448;-80
2023/03/23 02:13:14;;;;;;;1.07;0.50;;;12.10;99.90;;;;;;5060012;28;21018;-80
2023/03/23 02:15:49;;;;;;;1.70;1.27;;;12.20;99.90;;;;;;5062867;28;20417;-80
2023/03/23 02:18:33;;;;;;;0.60;0.60;;;12.10;99.90;;;;;;5064505;28;20468;-80
2023/03/23 02:21:35;;;;;;;0.63;0.63;;;12.10;99.90;;;;;;5059777;28;20441;-80
2023/03/23 02:24:40;;;;;;;0.60;0.50;;;12.10;99.90;;;;;;5039062;28;20463;-79
2023/03/23 02:27:12;;;;;;;0.50;0.50;;;12.10;99.90;;;;;;5034537;28;20437;-78
2023/03/23 02:30:09;;;;;;;0.60;0.60;;;12.00;99.90;;;;;;5057983;28;20464;-80
2023/03/23 02:33:25;;;;;;;1.63;0.68;;;11.90;99.90;;;;;;5048893;28;20962;-80
2023/03/23 02:35:57;;;;;;;1.13;0.90;;;11.80;99.90;;;;;;4974951;28;20197;-79
2023/03/23 02:38:29;;;;;;;1.03;1.00;;;11.70;99.90;;;;;;4974678;28;20460;-80
2023/03/23 02:40:57;;;;;;;1.63;0.60;;;11.70;99.90;;;;;;4974877;28;20448;-80
2023/03/23 02:43:29;;;;;;;1.10;0.73;;;11.70;99.90;;;;;;4974888;28;20444;-80
2023/03/23 02:45:58;;;;;;;0.80;0.80;;;11.60;99.90;;;;;;4975318;28;20970;-80
2023/03/23 02:48:30;;;;;;;1.63;1.33;;;11.60;99.90;;;;;;4974881;28;20440;-80
2023/03/23 02:51:01;;;;;;;0.70;0.50;;;11.60;99.90;;;;;;4974415;28;20805;-80
2023/03/23 02:53:31;;;;;;;0.80;0.77;;;11.60;99.90;;;;;;4974538;28;20620;-80
2023/03/23 02:55:58;;;;;;;7.18;0.60;;;11.60;99.90;;;;;;4975336;28;20460;-80
2023/03/23 02:58:26;;;;;;;2.10;1.45;;;11.60;99.90;;;;;;4974163;28;20201;-80
2023/03/23 03:00:56;;;;;;;0.60;0.50;;;11.60;99.90;;;;;;4974993;28;20201;-80
2023/03/23 03:03:27;;;;;;;0.60;0.60;;;11.60;99.90;;;;;;4975969;28;20991;-80
2023/03/23 03:06:07;;;;;;;0.60;0.60;;;11.60;99.90;;;;;;4990227;28;20798;-80
2023/03/23 03:08:45;;;;;;;0.70;0.70;;;11.50;99.90;;;;;;5055479;28;20441;-80
2023/03/23 03:11:14;;;;;;;1.77;1.47;;;11.60;99.90;;;;;;5055627;28;20194;-80
2023/03/23 03:13:47;;;;;;;3.10;3.00;;;11.50;99.90;;;;;;5054579;28;20479;-79
2023/03/23 03:16:23;;;;;;;0.50;0.50;;;11.50;99.90;;;;;;5054378;28;20215;-79
2023/03/23 03:18:56;;;;;;;0.90;0.50;;;11.50;99.90;;;;;;5055419;28;20445;-80
2023/03/23 03:21:27;;;;;;;0.50;0.40;;;11.60;99.90;;;;;;5063183;28;20445;-80
2023/03/23 03:23:58;;;;;;;0.70;0.70;;;11.60;99.90;;;;;;5055289;28;20492;-82
2023/03/23 03:26:27;;;;;;;0.50;0.40;;;11.60;99.90;;;;;;5056430;28;20438;-80
2023/03/23 03:28:54;;;;;;;1.73;0.83;;;11.60;99.90;;;;;;5056694;28;20195;-81
2023/03/23 03:31:24;;;;;;;0.97;0.90;;;11.60;99.90;;;;;;5054904;28;20448;-80
2023/03/23 03:33:51;;;;;;;0.97;0.97;;;11.60;99.90;;;;;;5055271;28;20851;-80
2023/03/23 03:36:21;;;;;;;0.87;0.87;;;11.60;99.90;;;;;;5055093;28;20441;-79
2023/03/23 03:38:51;;;;;;;0.50;0.40;;;11.60;99.90;;;;;;5055402;28;20825;-80
2023/03/23 03:41:19;;;;;;;0.60;0.50;;;11.60;99.90;;;;;;5054843;28;20198;-77
2023/03/23 03:43:46;;;;;;;0.50;0.40;;;11.70;99.90;;;;;;5054152;28;20269;-79
2023/03/23 03:46:13;;;;;;;1.08;1.02;;;11.70;99.90;;;;;;5054123;28;20203;-77
2023/03/23 03:48:40;;;;;;;1.03;0.93;;;11.60;99.90;;;;;;5056064;28;20186;-80
2023/03/23 03:51:08;;;;;;;1.15;0.95;;;11.70;99.90;;;;;;5055595;28;20472;-81
2023/03/23 03:53:35;;;;;;;2.75;0.85;;;11.70;99.90;;;;;;5054662;28;20609;-80
2023/03/23 03:56:05;;;;;;;0.50;0.40;;;11.60;99.90;;;;;;5055205;28;20291;-81
2023/03/23 03:58:32;;;;;;;0.77;0.70;;;11.70;99.90;;;;;;5056442;28;20226;-80
2023/03/23 04:01:00;;;;;;;0.70;0.70;;;11.70;99.90;;;;;;5057052;28;20494;-80
2023/03/23 04:03:27;;;;;;;0.95;0.90;;;11.70;99.90;;;;;;5054833;28;20505;-80
2023/03/23 04:05:55;;;;;;;0.50;0.40;;;11.70;99.90;;;;;;5054470;28;20248;-80
2023/03/23 04:08:22;;;;;;;1.08;0.98;;;11.70;99.90;;;;;;5054282;28;20202;-80
2023/03/23 04:10:50;;;;;;;0.73;0.73;;;11.70;99.90;;;;;;5055029;28;20195;-79
2023/03/23 04:13:18;;;;;;;0.50;0.40;;;11.70;99.90;;;;;;5056887;28;20444;-80
2023/03/23 04:15:46;;;;;;;1.52;1.05;;;11.80;99.90;;;;;;5059955;28;20588;-80
2023/03/23 04:18:14;;;;;;;1.13;0.90;;;11.70;99.90;;;;;;5059239;28;20222;-79
2023/03/23 04:20:41;;;;;;;0.60;0.50;;;11.80;99.90;;;;;;5059101;28;20221;-81
2023/03/23 04:23:08;;;;;;;1.00;0.70;;;11.80;99.90;;;;;;5059054;28;20440;-78
2023/03/23 04:25:35;;;;;;;0.70;0.60;;;11.90;99.90;;;;;;5059521;28;20218;-80
2023/03/23 04:28:02;;;;;;;0.70;0.43;;;11.80;99.90;;;;;;5058579;28;20206;-80
2023/03/23 04:30:31;;;;;;;0.50;0.40;;;11.80;99.90;;;;;;5058386;28;20306;-81
2023/03/23 04:32:59;;;;;;;0.70;0.60;;;11.90;99.90;;;;;;5058130;28;20662;-80
2023/03/23 04:35:26;;;;;;;0.50;0.40;;;11.90;99.90;;;;;;5058212;28;20480;-80
2023/03/23 04:37:54;;;;;;;0.73;0.73;;;11.90;99.90;;;;;;5058332;28;20441;-80
2023/03/23 04:40:22;;;;;;;0.70;0.70;;;11.90;99.90;;;;;;5057762;28;20225;-80
2023/03/23 04:42:51;;;;;;;1.80;1.02;;;12.00;99.90;;;;;;5058127;28;20444;-80
2023/03/23 04:45:21;;;;;;;0.50;0.40;;;12.00;99.90;;;;;;5057425;28;20210;-80
2023/03/23 04:47:52;;;;;;;0.60;0.60;;;12.00;99.90;;;;;;5058019;28;20199;-80
2023/03/23 04:50:21;;;;;;;0.95;0.82;;;12.00;99.90;;;;;;5057468;28;20198;-79
2023/03/23 04:52:48;;;;;;;0.60;0.57;;;12.00;99.90;;;;;;5058825;28;20289;-80
2023/03/23 04:55:15;;;;;;;0.70;0.70;;;12.00;99.90;;;;;;5057766;28;20492;-80
2023/03/23 04:57:42;;;;;;;1.20;1.10;;;12.10;99.90;;;;;;5058297;28;20197;-79
2023/03/23 05:00:14;;;;;;;0.70;0.70;;;12.10;99.90;;;;;;5057893;28;20452;-79
2023/03/23 05:02:41;;;;;;;1.80;1.70;;;12.10;99.90;;;;;;5049791;28;20207;-81
2023/03/23 05:05:10;;;;;;;2.67;0.70;;;12.10;99.90;;;;;;5057263;28;20449;-80
2023/03/23 05:07:38;;;;;;;1.33;0.80;;;12.10;99.90;;;;;;5056588;28;20425;-79
2023/03/23 05:10:06;;;;;;;1.60;0.60;;;12.10;99.90;;;;;;5057697;28;20479;-80
2023/03/23 05:12:32;;;;;;;0.77;0.70;;;12.10;99.90;;;;;;5057549;28;20441;-80
2023/03/23 05:14:59;;;;;;;0.65;0.63;;;12.10;99.90;;;;;;5057660;28;20847;-81
2023/03/23 05:17:27;;;;;;;0.50;0.40;;;12.10;99.90;;;;;;5057052;28;20198;-80
2023/03/23 05:19:56;;;;;;;1.73;0.97;;;12.10;99.90;;;;;;5056553;28;20862;-78
2023/03/23 05:22:24;;;;;;;0.50;0.40;;;12.10;99.90;;;;;;5057983;28;20444;-79
2023/03/23 05:24:51;;;;;;;1.53;0.90;;;12.10;99.90;;;;;;5057140;28;20317;-80
2023/03/23 05:27:19;;;;;;;1.10;0.57;;;12.10;99.90;;;;;;5057537;28;20437;-82
2023/03/23 05:29:48;;;;;;;1.23;0.63;;;12.10;99.90;;;;;;5059085;28;20448;-82
2023/03/23 05:32:15;;;;;;;1.53;1.27;;;12.10;99.90;;;;;;5058554;28;20268;-81
2023/03/23 05:34:42;;;;;;;4.83;1.10;;;12.10;99.90;;;;;;5058009;28;20525;-82
2023/03/23 05:37:11;;;;;;;3.80;1.40;;;12.10;99.90;;;;;;5059402;28;20441;-82
2023/03/23 05:39:40;;;;;;;0.50;0.50;;;12.10;99.90;;;;;;5059704;28;20455;-82
2023/03/23 05:42:07;;;;;;;2.25;0.70;;;12.20;99.90;;;;;;5060047;28;20197;-82
2023/03/23 05:44:34;;;;;;;0.50;0.50;;;12.20;99.90;;;;;;5060424;28;20211;-82
2023/03/23 05:47:01;;;;;;;1.30;1.20;;;12.20;99.90;;;;;;5062413;28;20199;-84
2023/03/23 05:49:28;;;;;;;0.95;0.95;;;12.20;99.90;;;;;;5063128;28;20199;-82
2023/03/23 05:51:55;;;;;;;1.03;0.97;;;12.20;99.90;;;;;;5062059;28;20222;-82
2023/03/23 05:54:22;;;;;;;0.70;0.70;;;12.20;99.90;;;;;;5062502;28;20485;-81
2023/03/23 05:56:50;;;;;;;1.10;0.80;;;12.20;99.90;;;;;;5063148;28;20524;-80
2023/03/23 05:59:17;;;;;;;0.63;0.63;;;12.20;99.90;;;;;;5062617;28;20531;-78
2023/03/23 06:01:44;;;;;;;1.33;1.20;;;12.20;99.90;;;;;;5062516;28;20194;-82
2023/03/23 06:04:11;;;;;;;0.90;0.90;;;12.30;99.90;;;;;;5063458;28;20472;-81
2023/03/23 06:06:38;;;;;;;1.50;1.23;;;12.30;99.90;;;;;;5063505;28;20491;-81
2023/03/23 06:09:06;;;;;;;3.40;1.60;;;12.30;99.90;;;;;;5062968;28;20437;-82
2023/03/23 06:11:33;;;;;;;0.50;0.40;;;12.20;99.90;;;;;;5063077;28;20445;-82
2023/03/23 06:14:02;;;;;;;0.93;0.93;;;12.30;99.90;;;;;;5064674;28;20465;-80
2023/03/23 06:16:29;;;;;;;0.90;0.85;;;12.30;99.90;;;;;;5063188;28;20512;-81
2023/03/23 06:18:56;;;;;;;1.23;1.00;;;12.30;99.90;;;;;;5062625;28;20195;-80
2023/03/23 06:21:24;;;;;;;1.10;0.90;;;12.30;99.90;;;;;;5061029;28;20221;-81
2023/03/23 06:23:50;;;;;;;1.40;1.30;;;12.30;99.90;;;;;;5063853;28;20484;-82
2023/03/23 06:26:20;;;;;;;0.70;0.67;;;12.30;99.90;;;;;;5064129;28;20510;-82
2023/03/23 06:28:47;;;;;;;0.68;0.68;;;12.30;99.90;;;;;;5063015;28;20469;-82
2023/03/23 06:31:19;;;;;;;2.20;1.27;;;12.30;99.90;;;;;;5067188;28;20198;-82
2023/03/23 06:33:47;;;;;;;1.07;0.97;;;12.30;99.90;;;;;;5067007;28;20468;-82
2023/03/23 06:36:14;;;;;;;0.50;0.50;;;12.40;99.90;;;;;;5068540;28;20477;-78
2023/03/23 06:38:40;;;;;;;1.02;0.93;;;12.40;99.90;;;;;;5065834;28;20512;-81
2023/03/23 06:41:08;;;;;;;0.80;0.80;;;12.40;99.90;;;;;;5063914;28;20190;-80
2023/03/23 06:43:39;;;;;;;0.70;0.70;;;12.40;99.90;;;;;;5062984;28;20467;-82
2023/03/23 06:46:06;;;;;;;0.95;0.85;;;12.40;99.90;;;;;;5060410;28;20199;-80
2023/03/23 06:48:34;;;;;;;1.53;1.10;;;12.40;99.90;;;;;;5061648;28;20194;-80
2023/03/23 06:51:02;;;;;;;1.40;1.20;;;12.40;99.90;;;;;;5060617;28;20464;-83
2023/03/23 06:53:30;;;;;;;0.90;0.77;;;12.40;99.90;;;;;;5061855;28;20826;-81
2023/03/23 06:55:57;;;;;;;1.83;0.90;;;12.40;99.90;;;;;;5061361;28;20485;-83
2023/03/23 06:58:24;;;;;;;10.73;2.67;;;12.50;99.90;;;;;;5060338;28;20537;-80
2023/03/23 07:00:56;;;;;;;1.87;0.97;;;12.50;99.90;;;;;;5060523;28;21019;-79
2023/03/23 07:03:23;;;;;;;4.77;0.90;;;12.50;99.90;;;;;;5060016;28;20441;-82
2023/03/23 07:05:51;;;;;;;5.30;2.87;;;12.60;99.90;;;;;;5058232;28;20467;-81
2023/03/23 07:08:18;;;;;;;0.97;0.87;;;12.50;99.90;;;;;;5055671;28;20449;-79
2023/03/23 07:10:45;;;;;;;0.88;0.88;;;12.60;99.90;;;;;;5056716;28;20472;-80
2023/03/23 07:13:11;;;;;;;5.93;1.20;;;12.60;99.90;;;;;;5056620;28;20285;-81
2023/03/23 07:15:39;;;;;;;1.50;0.90;;;12.70;99.90;;;;;;5056412;28;20472;-80
2023/03/23 07:18:06;;;;;;;4.30;0.83;;;12.60;99.90;;;;;;5056495;28;20736;-82
2023/03/23 07:20:33;;;;;;;0.87;0.87;;;12.60;99.90;;;;;;5056468;28;20437;-80
2023/03/23 07:23:02;;;;;;;0.70;0.70;;;12.60;99.90;;;;;;5057502;28;20448;-82
2023/03/23 07:25:29;;;;;;;1.08;0.98;;;12.60;99.90;;;;;;5064810;28;20457;-79
2023/03/23 07:27:56;;;;;;;0.80;0.80;;;12.60;99.90;;;;;;5057686;28;20205;-79
2023/03/23 07:30:23;;;;;;;0.60;0.57;;;12.60;99.90;;;;;;5056026;28;20441;-80
2023/03/23 07:32:50;;;;;;;2.33;1.60;;;12.60;99.90;;;;;;5057552;28;20817;-79
2023/03/23 07:35:17;;;;;;;1.00;0.90;;;12.60;99.90;;;;;;5068609;28;21043;-82
2023/03/23 07:37:45;;;;;;;1.07;0.60;;;12.60;99.90;;;;;;5070408;28;20461;-78
2023/03/23 07:40:15;;;;;;;0.60;0.50;;;12.60;99.90;;;;;;5068614;28;20468;-78
2023/03/23 07:42:43;;;;;;;1.15;1.05;;;12.60;99.90;;;;;;5063559;28;20921;-78
2023/03/23 07:45:11;;;;;;;0.77;0.73;;;12.60;99.90;;;;;;5066605;28;20214;-79
2023/03/23 07:47:38;;;;;;;2.70;1.80;;;12.60;99.90;;;;;;5066302;28;20433;-80
2023/03/23 07:50:06;;;;;;;1.80;0.80;;;12.50;99.90;;;;;;5057450;28;20434;-80
2023/03/23 07:52:33;;;;;;;1.40;0.75;;;12.60;99.90;;;;;;5056776;28;20218;-81
2023/03/23 07:55:01;;;;;;;1.27;1.17;;;12.60;99.90;;;;;;5105501;22;20242;-78
2023/03/23 07:57:30;;;;;;;1.77;0.87;;;12.60;99.90;;;;;;5049077;28;20456;-76
2023/03/23 07:59:57;;;;;;;0.83;0.73;;;12.60;99.90;;;;;;5050301;28;20931;-76
2023/03/23 08:02:24;;;;;;;0.80;0.80;;;12.50;99.90;;;;;;5050639;28;20445;-78
2023/03/23 08:04:51;;;;;;;1.03;1.03;;;12.60;99.90;;;;;;5051218;28;20483;-77
2023/03/23 08:07:18;;;;;;;0.93;0.70;;;12.60;99.90;;;;;;5050817;28;20447;-77
2023/03/23 08:09:46;;;;;;;1.50;1.40;;;12.60;99.90;;;;;;5050213;28;20533;-77
2023/03/23 08:12:13;;;;;;;0.82;0.75;;;12.70;99.90;;;;;;5050408;28;20445;-76
2023/03/23 08:14:41;;;;;;;2.43;1.90;;;12.70;99.90;;;;;;5050783;28;20306;-77
2023/03/23 08:17:08;;;;;;;4.20;0.97;;;12.70;99.90;;;;;;5050558;28;20447;-76
2023/03/23 08:19:36;;;;;;;2.43;2.33;;;12.80;99.90;;;;;;5050527;28;20503;-77
2023/03/23 08:22:04;;;;;;;0.77;0.60;;;12.90;99.90;;;;;;5050409;28;20503;-78
2023/03/23 08:24:31;;;;;;;1.63;1.53;;;12.90;99.90;;;;;;5050503;28;20810;-76
2023/03/23 08:26:57;;;;;;;0.50;0.40;;;12.90;99.90;;;;;;5050996;28;20796;-78
2023/03/23 08:29:24;;;;;;;1.00;0.60;;;12.90;99.90;;;;;;5050887;28;20439;-76
2023/03/23 08:31:53;;;;;;;0.67;0.67;;;13.00;99.90;;;;;;5050337;28;20443;-77
2023/03/23 08:34:20;;;;;;;2.07;0.90;;;13.10;99.90;;;;;;5050492;28;20492;-77
2023/03/23 08:36:47;;;;;;;0.97;0.80;;;13.00;99.90;;;;;;5050003;28;20476;-77
2023/03/23 08:39:16;;;;;;;0.60;0.50;;;13.00;99.90;;;;;;5050717;28;20948;-77
2023/03/23 08:41:44;;;;;;;0.97;0.47;;;13.20;99.90;;;;;;5050347;28;20445;-77
2023/03/23 08:44:11;;;;;;;0.50;0.40;;;13.30;99.90;;;;;;5050574;28;20821;-77
2023/03/23 08:46:38;;;;;;;1.53;1.17;;;13.30;99.90;;;;;;5050218;28;20449;-77
2023/03/23 08:49:07;;;;;;;3.63;0.70;;;13.40;99.90;;;;;;5050283;28;20490;-77
2023/03/23 08:51:35;;;;;;;0.60;0.60;;;13.40;99.90;;;;;;5050299;28;20460;-77
2023/03/23 08:54:02;;;;;;;2.30;0.70;;;13.60;99.90;;;;;;5050278;28;20535;-77
2023/03/23 08:56:29;;;;;;;0.93;0.80;;;13.60;99.90;;;;;;5050069;28;20477;-77
2023/03/23 08:58:56;;;;;;;0.60;0.43;;;13.50;99.90;;;;;;5042506;28;20441;-77
2023/03/23 09:01:23;;;;;;;5.93;0.83;;;13.40;99.90;;;;;;5053880;28;20543;-77
2023/03/23 09:03:50;;;;;;;1.33;0.60;;;13.30;99.90;;;;;;5053884;28;20574;-77
2023/03/23 09:06:18;;;;;;;0.80;0.80;;;13.30;99.90;;;;;;5053909;28;20469;-76
2023/03/23 09:08:45;;;;;;;4.20;1.33;;;13.20;99.90;;;;;;5053930;28;20484;-77
2023/03/23 09:11:12;;;;;;;0.90;0.70;;;13.20;99.90;;;;;;5053787;28;20449;-77
2023/03/23 09:13:40;;;;;;;6.23;2.10;;;13.20;99.90;;;;;;5053580;28;20457;-77
2023/03/23 09:16:08;;;;;;;0.70;0.70;;;13.20;99.90;;;;;;5053841;28;20904;-76
2023/03/23 09:18:36;;;;;;;0.80;0.70;;;13.10;99.90;;;;;;5053546;28;20448;-77
2023/03/23 09:21:04;;;;;;;0.80;0.60;;;13.10;99.90;;;;;;5053911;28;20441;-78
2023/03/23 09:23:33;;;;;;;0.60;0.50;;;13.00;99.90;;;;;;5053549;28;20445;-77
2023/03/23 09:26:01;;;;;;;4.53;4.00;;;13.00;99.90;;;;;;5045877;28;20560;-77
2023/03/23 09:28:29;;;;;;;2.53;0.70;;;13.10;99.90;;;;;;5053356;28;20440;-77
2023/03/23 09:30:57;;;;;;;0.97;0.50;;;13.10;99.90;;;;;;5053176;28;20441;-78
2023/03/23 09:33:25;;;;;;;0.90;0.60;;;13.10;99.90;;;;;;5053655;28;20441;-76
2023/03/23 09:35:52;;;;;;;2.20;1.03;;;13.20;99.90;;;;;;5053097;28;20500;-77
2023/03/23 09:38:21;;;;;;;2.10;0.50;;;13.20;99.90;;;;;;5053326;28;20928;-77
2023/03/23 09:40:57;;;;;;;0.50;0.40;;;13.10;99.90;;;;;;5053401;28;20453;-78
2023/03/23 09:43:46;;;;;;;5.93;0.93;;;13.10;99.90;;;;;;5053033;28;20445;-77
2023/03/23 09:46:31;;;;;;;0.50;0.40;;;13.00;99.90;;;;;;5047296;28;20489;-77
2023/03/23 09:49:01;;;;;;;0.80;0.50;;;12.90;99.90;;;;;;5053578;28;20935;-78
2023/03/23 09:51:40;;;;;;;1.23;1.20;;;12.80;99.90;;;;;;5053754;28;20499;-77
2023/03/23 09:54:15;;;;;;;0.50;0.40;;;12.50;99.90;;;;;;5046447;28;20880;-77
2023/03/23 09:56:44;;;;;;;0.60;0.60;;;12.00;99.90;;;;;;5053007;28;20498;-77
2023/03/23 09:59:19;;;;;;;0.50;0.40;;;11.50;99.90;;;;;;5053167;28;20449;-76
2023/03/23 10:01:49;;;;;;;0.60;0.60;;;11.20;99.90;;;;;;5052471;28;20924;-77
2023/03/23 10:04:29;;;;;;;0.50;0.40;;;11.10;99.90;;;;;;5053082;28;20657;-78
2023/03/23 10:07:00;;;;;;;0.50;0.40;;;11.00;99.90;;;;;;5052917;28;20557;-77
2023/03/23 10:09:29;;;;;;;0.50;0.40;;;10.90;99.90;;;;;;5052939;28;20576;-78
2023/03/23 10:12:08;;;;;;;0.50;0.40;;;10.90;99.90;;;;;;5052189;28;20209;-78
2023/03/23 10:14:53;;;;;;;4.53;0.70;;;11.00;99.90;;;;;;5053375;28;20479;-77
2023/03/23 10:17:29;;;;;;;0.50;0.40;;;11.00;99.90;;;;;;5052812;28;20884;-77
2023/03/23 10:20:20;;;;;;;2.05;0.77;;;10.90;99.90;;;;;;5052433;28;20807;-76
2023/03/23 10:22:53;;;;;;;0.50;0.40;;;10.70;99.90;;;;;;5052874;28;20745;-76
2023/03/23 10:25:26;;;;;;;0.50;0.40;;;10.60;99.90;;;;;;5052748;28;20215;-76
2023/03/23 10:28:03;;;;;;;0.70;0.70;;;10.60;99.90;;;;;;5052182;28;20281;-77
2023/03/23 10:30:33;;;;;;;0.50;0.40;;;10.50;99.90;;;;;;5059889;28;20193;-77
2023/03/23 10:33:06;;;;;;;0.50;0.40;;;10.40;99.90;;;;;;5044289;28;20204;-77
2023/03/23 10:35:37;;;;;;;0.50;0.40;;;10.40;99.90;;;;;;5052344;28;20605;-77
2023/03/23 10:38:10;;;;;;;0.50;0.43;;;10.40;99.90;;;;;;5044641;28;20199;-77
2023/03/23 10:40:57;;;;;;;0.50;0.40;;;10.50;99.90;;;;;;5051857;28;20578;-76
2023/03/23 10:43:26;;;;;;;0.50;0.40;;;10.50;99.90;;;;;;5052349;28;20198;-77
2023/03/23 10:45:58;;;;;;;0.50;0.50;;;10.50;99.90;;;;;;5051892;28;20214;-77
2023/03/23 10:48:30;;;;;;;1.55;1.45;;;10.50;99.90;;;;;;5052514;28;20287;-77
2023/03/23 10:51:02;;;;;;;0.50;0.40;;;10.50;99.90;;;;;;5051861;28;20203;-77
2023/03/23 10:53:33;;;;;;;0.50;0.50;;;10.60;99.90;;;;;;5052020;28;20617;-77
2023/03/23 10:56:01;;;;;;;1.35;0.88;;;10.70;99.90;;;;;;5051325;28;20224;-77
2023/03/23 10:58:31;;;;;;;0.60;0.50;;;10.60;99.90;;;;;;5052054;28;20246;-77
2023/03/23 11:01:00;;;;;;;0.50;0.40;;;10.50;99.90;;;;;;5051735;28;20221;-77
2023/03/23 11:03:38;;;;;;;2.00;0.73;;;10.40;99.90;;;;;;5051639;28;20273;-76
2023/03/23 11:06:08;;;;;;;0.50;0.40;;;10.30;99.90;;;;;;5043967;28;20305;-77
2023/03/23 11:08:37;;;;;;;0.50;0.40;;;10.20;99.90;;;;;;5051609;28;20548;-77
2023/03/23 11:11:16;;;;;;;1.45;0.98;;;10.30;99.90;;;;;;5043569;28;20198;-77
2023/03/23 11:13:47;;;;;;;0.50;0.40;;;10.20;99.90;;;;;;5051384;28;20309;-77
2023/03/23 11:16:24;;;;;;;0.73;0.55;;;10.10;99.90;;;;;;5051498;28;20234;-75
2023/03/23 11:18:52;;;;;;;0.70;0.70;;;10.00;99.90;;;;;;5051527;28;20198;-77
2023/03/23 11:21:20;;;;;;;0.80;0.63;;;10.00;99.90;;;;;;5051263;28;20570;-76
2023/03/23 11:23:51;;;;;;;0.65;0.65;;;10.00;99.90;;;;;;5050954;28;20574;-76
2023/03/23 11:26:22;;;;;;;1.17;1.05;;;9.90;99.90;;;;;;5050951;28;20234;-76
2023/03/23 11:28:54;;;;;;;3.55;1.02;;;10.00;99.90;;;;;;5051352;28;20577;-76
2023/03/23 11:31:23;;;;;;;4.82;0.95;;;10.00;99.90;;;;;;5051110;28;20571;-76
2023/03/23 11:33:56;;;;;;;0.50;0.40;;;10.00;99.90;;;;;;5051219;28;20682;-77
2023/03/23 11:36:31;;;;;;;0.50;0.47;;;9.90;99.90;;;;;;5051012;28;20219;-76
2023/03/23 11:38:58;;;;;;;3.45;0.75;;;9.90;99.90;;;;;;5051258;28;20205;-77
2023/03/23 11:41:26;;;;;;;0.80;0.70;;;9.80;99.90;;;;;;5051183;28;20198;-76
2023/03/23 11:43:54;;;;;;;0.95;0.55;;;9.80;99.90;;;;;;5051048;28;20203;-77
2023/03/23 11:46:33;;;;;;;1.40;1.30;;;9.90;99.90;;;;;;5051023;28;20214;-77
2023/03/23 11:49:02;;;;;;;0.50;0.50;;;9.80;99.90;;;;;;5051026;28;20301;-77
2023/03/23 11:51:34;;;;;;;1.13;0.98;;;9.90;99.90;;;;;;5050693;28;20731;-77
2023/03/23 11:54:08;;;;;;;0.50;0.40;;;10.10;99.90;;;;;;5050681;28;20797;-77
2023/03/23 11:56:37;;;;;;;0.50;0.40;;;10.50;99.90;;;;;;5050872;28;20272;-77
2023/03/23 11:59:14;;;;;;;0.60;0.50;;;10.60;99.90;;;;;;5050741;28;20589;-77
2023/03/23 12:01:54;;;;;;;0.90;0.90;;;10.70;99.90;;;;;;5050591;28;20900;-76
2023/03/23 12:04:41;;;;;;;0.82;0.77;;;10.60;99.90;;;;;;5050877;28;20464;-77
2023/03/23 12:07:37;;;;;;;0.50;0.40;;;10.70;99.90;;;;;;5042711;28;20191;-76
2023/03/23 12:10:19;;;;;;;1.20;1.15;;;10.80;99.90;;;;;;5047148;28;20452;-76
2023/03/23 12:12:51;;;;;;;0.50;0.40;;;10.70;99.90;;;;;;5050528;28;20226;-77
2023/03/23 12:15:26;;;;;;;0.60;0.40;;;10.70;99.90;;;;;;5050610;28;20986;-77
2023/03/23 12:18:01;;;;;;;1.67;0.80;;;10.70;99.90;;;;;;5050215;28;20222;-77
2023/03/23 12:20:37;;;;;;;0.50;0.40;;;10.60;99.90;;;;;;5050539;28;20440;-77
2023/03/23 12:23:17;;;;;;;0.50;0.47;;;10.60;99.90;;;;;;5050611;28;20190;-76
2023/03/23 12:26:08;;;;;;;0.65;0.65;;;10.70;99.90;;;;;;5050351;28;20472;-77
2023/03/23 12:28:45;;;;;;;0.50;0.50;;;10.70;99.90;;;;;;5050628;28;20577;-77
2023/03/23 12:31:30;;;;;;;0.63;0.63;;;10.60;99.90;;;;;;5042626;28;20202;-75
2023/03/23 12:34:05;;;;;;;3.25;1.00;;;10.60;99.90;;;;;;5050286;28;20206;-77
2023/03/23 12:36:48;;;;;;;0.50;0.50;;;10.70;99.90;;;;;;5053669;28;20648;-76
2023/03/23 12:39:43;;;;;;;1.10;0.50;;;10.80;99.90;;;;;;5047600;28;20583;-77
2023/03/23 12:42:17;;;;;;;0.50;0.40;;;11.10;99.90;;;;;;5046584;28;20444;-77
2023/03/23 12:44:49;;;;;;;1.55;0.70;;;11.30;99.90;;;;;;5054054;28;20461;-76
2023/03/23 12:47:33;;;;;;;0.63;0.60;;;11.40;99.90;;;;;;5054156;28;20640;-77
2023/03/23 12:50:03;;;;;;;1.53;1.10;;;11.40;99.90;;;;;;5054249;28;20823;-76
2023/03/23 12:52:36;;;;;;;0.50;0.50;;;11.40;99.90;;;;;;5054385;28;20441;-77
2023/03/23 12:55:07;;;;;;;1.40;1.23;;;11.40;99.90;;;;;;5053716;28;20222;-76
2023/03/23 12:57:40;;;;;;;0.63;0.63;;;11.60;99.90;;;;;;5053777;28;20476;-77
2023/03/23 13:00:18;;;;;;;0.60;0.60;;;11.60;99.90;;;;;;5053977;28;20473;-78
2023/03/23 13:02:53;;;;;;;0.50;0.40;;;11.50;99.90;;;;;;5053757;28;20449;-77
2023/03/23 13:05:34;;;;;;;1.43;1.33;;;11.60;99.90;;;;;;5054257;28;20471;-77